ePrivacy and GPDR Cookie Consent by Cookie Consent
EmailTwitter


Observations de surface / Canada / CYYZ (71624)

Régions: Québec | Canada | États-Unis | Europe | France | UK | Ailleurs
Station
Affichage
Infos & localisation pour CYYZ (71624) | Aide pour décoder les METARs

Observations prises le 2022-05-18 à 10H00 UTC à TORONTO A, ON (CYYZ)

Etat du ciel: quelques nuages.

Température: 6.0 Celsius

Point de rosée: 3.0 Celsius

Humidité relative: 81%

Vents: Nord-nord-ouest à 9 km/h ou 5 noeuds.

Pression au niveau moyen de la mer: 101.74 kilopascals.

Calage altimétrique: 101.69 kilopascals ou 30.03 pouces de mercure.

Visibilité horizontale: 15.00 milles terrestres ou 24.00 kilomètres.

Observation METAR:

CYYZ 181000Z 34005KT 15SM FEW170 06/03 A3003 RMK AS2 SLP174=